Tampa, FL

12:19 AM EDT die 21o August, anno 2014 (GMT -0400)
Independence Park | Change Station
CLOSE
Current Station
Personal Weather Stations
Location: MacDill AFB, FL
Elevation: 0 ft
Nearby Weather Stations

Elev 0 ft 27.85 °N, 82.48 °W | Updated 24 seconds ago

Clear
Serena
83.8 °F
Feels Like 93 °F
N
1.0
Ventus Variabilis Ventus from Eurus
Gusts 1.0 mph

Hodie
High -- | Low -- °F
--% Chance of Precip.
Yesterday
High -- | Low -- °F
Precip. -- in
7:03 AM 8:02 PM
Waning Crescent, 17% visible
Pressio 30.11 in
Visibilitas 10.0 milia passuum
Clouds Serena
Index Caloris 93 °F
Frigus in quo Ros apparet 77 °F
Umor 80%
Rainfall 0.00 in
Snow Depth Not available.
UV 0 out of 12
Pollen 4.20 out of 12
Air Quality Not available.
Flu Activity Not available.
METAR KMCF 210358Z AUTO 36005KT 10SM CLR 28/25 A3010 RMK AO2 SLP196 T02770254

More Conditions Fewer Conditions

Pressio 30.11 in
Visibilitas 10.0 milia passuum
Clouds Serena
Index Caloris 93 °F
Frigus in quo Ros apparet 77 °F
Umor 80%
Rainfall 0.00 in
Snow Depth Not available.
UV 0 out of 12
Pollen 4.20 out of 12
Air Quality Not available.
Flu Activity Not available.
METAR KMCF 210358Z AUTO 36005KT 10SM CLR 28/25 A3010 RMK AO2 SLP196 T02770254

More Conditions Fewer Conditions

10-Day Weather Forecast

Almanac

Astronomy

Aug. 21, 2014 Rise Set
Actual Time 7:03 AM EDT 8:02 PM EDT
Civil Twilight 6:39 AM EDT 8:26 PM EDT
Nautical Twilight 6:10 AM EDT 8:55 PM EDT
Astronomical Twilight 5:40 AM EDT 9:24 PM EDT
Moon 3:41 AM EDT 5:23 PM EDT
Length Of Visible Light 13h 47m
Length of Day
12h 59m
Tomorrow will be 1m 30s shorter.
Waning Crescent, 17% of the Moon is Illuminated
Hodie
Waning Crescent
Aug 25
New
Sep 2
First Quarter
Sep 8
Full
Sep 15
Last Quarter

Yesterday's Extremes

State Highs State Lows

Community

WunderPhotos

Upload Photos

1,745,851 photos uploaded!

Nearby

Snow Depth

Station Depth Elevation
No new snow has been reported.

Earthquake Activity

City Distance Mag. Time & Date
No recent earthquake activity has been reported nearby.
Minimum magnitude displayed is 2.5.

Coastal Water Temperatures

Locus Calor
St Petersburg, FL 91.9 °F
Old Port Tampa, FL 89.1 °F
McKay Bay Entrance, FL 90.0 °F

Nearby Weather Stations